Winterport, Maine
Current Conditions -  °F | °C
As of 3:53 AM on Friday 19 Dec 2014 (Local Time) from KBGR Reporting Station
Overcast Overcast  
Wind Chill: -6°   Ceiling: 3300
Heat Index: -2°   Visibility: 10mi
Dew Point: -5°   Wind: 9mph
Humidity: 78%   Direction: 300°WNW
Pressure: 29.77"   Gusts: NA
Location:  44.65°N, 68.86°W
Report Text: KBGR 190853Z 30008KT 10SM OVC033 M02/M05 A2977 RMK AO2 SLP083 T10171050 51009
Loading
Personal Weather Stations






























Interactive Weather Map New forecast layout! Learn more

10-Day Weather Forecast

Advertisements
Track Severe Weather on mobile